Time,TemperatureF,DewpointF,PressureIn,WindDirection,WindDirectionDegrees,WindSpeedMPH,WindSpeedGustMPH,Humidity,HourlyPrecipIn,Conditions,Clouds,dailyrainin,SoftwareType,DateUTC
2013-07-05 00:00:00,77.1,61.2,29.57,WSW,248,0.0,0.0,58,0.00,,,0.00,WeatherCatV1.15B25,2013-07-05 07:00:00,
2013-07-05 00:05:00,77.1,61.2,29.57,WSW,248,0.0,0.0,58,0.00,,,0.00,WeatherCatV1.15B25,2013-07-05 07:05:00,
2013-07-05 00:10:00,77.1,61.2,29.57,WSW,248,0.0,0.0,58,0.00,,,0.00,WeatherCatV1.15B25,2013-07-05 07:10:00,
2013-07-05 00:15:00,77.1,61.2,29.57,WSW,248,0.0,0.0,58,0.00,,,0.00,WeatherCatV1.15B25,2013-07-05 07:15:00,
2013-07-05 00:20:00,77.1,61.2,29.57,WSW,248,0.0,0.0,58,0.00,,,0.00,WeatherCatV1.15B25,2013-07-05 07:20:00,
2013-07-05 00:25:00,77.1,61.2,29.57,WSW,248,0.0,0.0,58,0.00,,,0.00,WeatherCatV1.15B25,2013-07-05 07:25:00,
2013-07-05 00:30:00,77.1,61.2,29.57,WSW,248,0.0,0.0,58,0.00,,,0.00,WeatherCatV1.15B25,2013-07-05 07:30:00,
2013-07-05 00:35:00,77.1,61.2,29.57,WSW,248,0.0,0.0,58,0.00,,,0.00,WeatherCatV1.15B25,2013-07-05 07:35:00,
2013-07-05 00:40:00,77.1,61.2,29.57,WSW,248,0.0,0.0,58,0.00,,,0.00,WeatherCatV1.15B25,2013-07-05 07:40:00,
2013-07-05 00:45:00,77.1,61.2,29.57,WSW,248,0.0,0.0,58,0.00,,,0.00,WeatherCatV1.15B25,2013-07-05 07:45:00,
2013-07-05 00:50:00,77.1,61.2,29.57,WSW,248,0.0,0.0,58,0.00,,,0.00,WeatherCatV1.15B25,2013-07-05 07:50:00,
2013-07-05 00:55:00,77.1,61.2,29.57,WSW,248,0.0,0.0,58,0.00,,,0.00,WeatherCatV1.15B25,2013-07-05 07:55:00,
2013-07-05 01:00:00,76.5,59.6,29.56,WSW,248,0.0,0.0,56,0.00,,,0.00,WeatherCatV1.15B25,2013-07-05 08:00:00,
2013-07-05 01:05:00,76.5,59.6,29.56,WSW,248,0.0,0.0,56,0.00,,,0.00,WeatherCatV1.15B25,2013-07-05 08:05:00,
2013-07-05 01:10:00,76.5,59.6,29.56,WSW,248,0.0,0.0,56,0.00,,,0.00,WeatherCatV1.15B25,2013-07-05 08:10:00,
2013-07-05 01:15:00,76.5,59.6,29.56,WSW,248,0.0,0.0,56,0.00,,,0.00,WeatherCatV1.15B25,2013-07-05 08:15:00,
2013-07-05 01:20:00,76.5,59.6,29.56,WSW,248,0.0,0.0,56,0.00,,,0.00,WeatherCatV1.15B25,2013-07-05 08:20:00,
2013-07-05 01:25:00,76.5,59.6,29.56,WSW,248,0.0,0.0,56,0.00,,,0.00,WeatherCatV1.15B25,2013-07-05 08:25:00,
2013-07-05 01:30:00,76.5,59.6,29.56,WSW,248,0.0,0.0,56,0.00,,,0.00,WeatherCatV1.15B25,2013-07-05 08:30:00,
2013-07-05 01:35:00,76.5,59.6,29.56,WSW,248,0.0,0.0,56,0.00,,,0.00,WeatherCatV1.15B25,2013-07-05 08:35:00,
2013-07-05 01:40:00,76.5,59.6,29.56,WSW,248,0.0,0.0,56,0.00,,,0.00,WeatherCatV1.15B25,2013-07-05 08:40:00,
2013-07-05 01:45:00,76.5,59.6,29.56,WSW,248,0.0,0.0,56,0.00,,,0.00,WeatherCatV1.15B25,2013-07-05 08:45:00,
2013-07-05 01:50:00,76.5,59.6,29.56,WSW,248,0.0,0.0,56,0.00,,,0.00,WeatherCatV1.15B25,2013-07-05 08:50:00,
2013-07-05 01:55:00,76.5,59.6,29.56,WSW,248,0.0,0.0,56,0.00,,,0.00,WeatherCatV1.15B25,2013-07-05 08:55:00,
2013-07-05 02:00:00,76.6,58.2,29.55,WSW,248,0.0,0.0,53,0.00,,,0.00,WeatherCatV1.15B25,2013-07-05 09:00:00,
2013-07-05 02:05:00,76.6,58.2,29.55,WSW,248,0.0,0.0,53,0.00,,,0.00,WeatherCatV1.15B25,2013-07-05 09:05:00,
2013-07-05 02:10:00,76.6,58.2,29.55,WSW,248,0.0,0.0,53,0.00,,,0.00,WeatherCatV1.15B25,2013-07-05 09:10:00,
2013-07-05 02:15:00,76.6,58.2,29.55,WSW,248,0.0,0.0,53,0.00,,,0.00,WeatherCatV1.15B25,2013-07-05 09:15:00,
2013-07-05 02:20:00,76.6,58.2,29.55,WSW,248,0.0,0.0,53,0.00,,,0.00,WeatherCatV1.15B25,2013-07-05 09:20:00,
2013-07-05 02:25:00,76.6,58.2,29.55,WSW,248,0.0,0.0,53,0.00,,,0.00,WeatherCatV1.15B25,2013-07-05 09:25:00,
2013-07-05 02:30:00,76.6,58.2,29.55,WSW,248,0.0,0.0,53,0.00,,,0.00,WeatherCatV1.15B25,2013-07-05 09:30:00,
2013-07-05 02:35:00,76.6,58.2,29.55,WSW,248,0.0,0.0,53,0.00,,,0.00,WeatherCatV1.15B25,2013-07-05 09:35:00,
2013-07-05 02:40:00,76.6,58.2,29.55,WSW,248,0.0,0.0,53,0.00,,,0.00,WeatherCatV1.15B25,2013-07-05 09:40:00,
2013-07-05 02:45:00,76.6,58.2,29.55,WSW,248,0.0,0.0,53,0.00,,,0.00,WeatherCatV1.15B25,2013-07-05 09:45:00,
2013-07-05 02:50:00,76.6,58.2,29.55,WSW,248,0.0,0.0,53,0.00,,,0.00,WeatherCatV1.15B25,2013-07-05 09:50:00,
2013-07-05 02:55:00,76.6,58.2,29.55,WSW,248,0.0,0.0,53,0.00,,,0.00,WeatherCatV1.15B25,2013-07-05 09:55:00,
2013-07-05 03:00:00,75.6,57.8,29.54,WSW,248,0.0,0.0,54,0.00,,,0.00,WeatherCatV1.15B25,2013-07-05 10:00:00,
2013-07-05 03:05:00,75.6,57.8,29.54,WSW,248,0.0,0.0,54,0.00,,,0.00,WeatherCatV1.15B25,2013-07-05 10:05:00,
2013-07-05 03:10:00,75.6,57.8,29.54,WSW,248,0.0,0.0,54,0.00,,,0.00,WeatherCatV1.15B25,2013-07-05 10:10:00,
2013-07-05 03:15:00,75.6,57.8,29.54,WSW,248,0.0,0.0,54,0.00,,,0.00,WeatherCatV1.15B25,2013-07-05 10:15:00,
2013-07-05 03:20:00,75.6,57.8,29.54,WSW,248,0.0,0.0,54,0.00,,,0.00,WeatherCatV1.15B25,2013-07-05 10:20:00,
2013-07-05 03:25:00,75.6,57.8,29.54,WSW,248,0.0,0.0,54,0.00,,,0.00,WeatherCatV1.15B25,2013-07-05 10:25:00,
2013-07-05 03:30:00,75.6,57.8,29.54,WSW,248,0.0,0.0,54,0.00,,,0.00,WeatherCatV1.15B25,2013-07-05 10:30:00,
2013-07-05 03:35:00,75.6,57.8,29.54,WSW,248,0.0,0.0,54,0.00,,,0.00,WeatherCatV1.15B25,2013-07-05 10:35:00,
2013-07-05 03:40:00,75.6,57.8,29.54,WSW,248,0.0,0.0,54,0.00,,,0.00,WeatherCatV1.15B25,2013-07-05 10:40:00,
2013-07-05 03:45:00,75.6,57.8,29.54,WSW,248,0.0,0.0,54,0.00,,,0.00,WeatherCatV1.15B25,2013-07-05 10:45:00,
2013-07-05 03:50:00,75.6,57.8,29.54,WSW,248,0.0,0.0,54,0.00,,,0.00,WeatherCatV1.15B25,2013-07-05 10:50:00,
2013-07-05 03:55:00,75.6,57.8,29.54,WSW,248,0.0,0.0,54,0.00,,,0.00,WeatherCatV1.15B25,2013-07-05 10:55:00,
2013-07-05 04:00:00,74.5,57.8,29.52,WSW,248,0.0,0.0,56,0.00,,,0.00,WeatherCatV1.15B25,2013-07-05 11:00:00,
2013-07-05 04:05:00,74.5,57.8,29.52,WSW,248,0.0,0.0,56,0.00,,,0.00,WeatherCatV1.15B25,2013-07-05 11:05:00,
2013-07-05 04:10:00,74.5,57.8,29.52,WSW,248,0.0,0.0,56,0.00,,,0.00,WeatherCatV1.15B25,2013-07-05 11:10:00,
2013-07-05 04:15:00,74.5,57.8,29.52,WSW,248,0.0,0.0,56,0.00,,,0.00,WeatherCatV1.15B25,2013-07-05 11:15:00,
2013-07-05 04:20:00,74.5,57.8,29.52,WSW,248,0.0,0.0,56,0.00,,,0.00,WeatherCatV1.15B25,2013-07-05 11:20:00,
2013-07-05 04:25:00,74.5,57.8,29.52,WSW,248,0.0,0.0,56,0.00,,,0.00,WeatherCatV1.15B25,2013-07-05 11:25:00,
2013-07-05 04:30:00,74.5,57.8,29.52,WSW,248,0.0,0.0,56,0.00,,,0.00,WeatherCatV1.15B25,2013-07-05 11:30:00,
2013-07-05 04:35:00,74.5,57.8,29.52,WSW,248,0.0,0.0,56,0.00,,,0.00,WeatherCatV1.15B25,2013-07-05 11:35:00,
2013-07-05 04:40:00,74.5,57.8,29.52,WSW,248,0.0,0.0,56,0.00,,,0.00,WeatherCatV1.15B25,2013-07-05 11:40:00,
2013-07-05 04:45:00,74.5,57.8,29.52,WSW,248,0.0,0.0,56,0.00,,,0.00,WeatherCatV1.15B25,2013-07-05 11:45:00,
2013-07-05 04:50:00,74.5,57.8,29.52,WSW,248,0.0,0.0,56,0.00,,,0.00,WeatherCatV1.15B25,2013-07-05 11:50:00,
2013-07-05 04:55:00,74.5,57.8,29.52,WSW,248,0.0,0.0,56,0.00,,,0.00,WeatherCatV1.15B25,2013-07-05 11:55:00,
2013-07-05 05:00:00,72.8,58.5,29.52,WSW,248,0.0,0.0,61,0.00,,,0.00,WeatherCatV1.15B25,2013-07-05 12:00:00,
2013-07-05 05:05:00,72.8,58.5,29.52,WSW,248,0.0,0.0,61,0.00,,,0.00,WeatherCatV1.15B25,2013-07-05 12:05:00,
2013-07-05 05:10:00,72.8,58.5,29.52,WSW,248,0.0,0.0,61,0.00,,,0.00,WeatherCatV1.15B25,2013-07-05 12:10:00,
2013-07-05 05:15:00,72.8,58.5,29.52,WSW,248,0.0,0.0,61,0.00,,,0.00,WeatherCatV1.15B25,2013-07-05 12:15:00,
2013-07-05 05:20:00,72.8,58.5,29.52,WSW,248,0.0,0.0,61,0.00,,,0.00,WeatherCatV1.15B25,2013-07-05 12:20:00,
2013-07-05 05:25:00,72.8,58.5,29.52,WSW,248,0.0,0.0,61,0.00,,,0.00,WeatherCatV1.15B25,2013-07-05 12:25:00,
2013-07-05 05:30:00,72.8,58.5,29.52,WSW,248,0.0,0.0,61,0.00,,,0.00,WeatherCatV1.15B25,2013-07-05 12:30:00,
2013-07-05 05:35:00,72.8,58.5,29.52,WSW,248,0.0,0.0,61,0.00,,,0.00,WeatherCatV1.15B25,2013-07-05 12:35:00,
2013-07-05 05:40:00,72.8,58.5,29.52,WSW,248,0.0,0.0,61,0.00,,,0.00,WeatherCatV1.15B25,2013-07-05 12:40:00,
2013-07-05 05:45:00,72.8,58.5,29.52,WSW,248,0.0,0.0,61,0.00,,,0.00,WeatherCatV1.15B25,2013-07-05 12:45:00,
2013-07-05 05:50:00,72.8,58.5,29.52,WSW,248,0.0,0.0,61,0.00,,,0.00,WeatherCatV1.15B25,2013-07-05 12:50:00,
2013-07-05 05:55:00,72.8,58.5,29.52,WSW,248,0.0,0.0,61,0.00,,,0.00,WeatherCatV1.15B25,2013-07-05 12:55:00,
2013-07-05 06:00:00,70.6,58.2,29.53,WSW,248,0.0,0.0,65,0.00,,,0.00,WeatherCatV1.15B25,2013-07-05 13:00:00,
2013-07-05 06:05:00,70.6,58.2,29.53,WSW,248,0.0,0.0,65,0.00,,,0.00,WeatherCatV1.15B25,2013-07-05 13:05:00,
2013-07-05 06:10:00,70.6,58.2,29.53,WSW,248,0.0,0.0,65,0.00,,,0.00,WeatherCatV1.15B25,2013-07-05 13:10:00,
2013-07-05 06:15:00,70.6,58.2,29.53,WSW,248,0.0,0.0,65,0.00,,,0.00,WeatherCatV1.15B25,2013-07-05 13:15:00,
2013-07-05 06:20:00,70.6,58.2,29.53,WSW,248,0.0,0.0,65,0.00,,,0.00,WeatherCatV1.15B25,2013-07-05 13:20:00,
2013-07-05 06:25:00,70.6,58.2,29.53,WSW,248,0.0,0.0,65,0.00,,,0.00,WeatherCatV1.15B25,2013-07-05 13:25:00,
2013-07-05 06:30:00,70.6,58.2,29.53,WSW,248,0.0,0.0,65,0.00,,,0.00,WeatherCatV1.15B25,2013-07-05 13:30:00,
2013-07-05 06:35:00,70.6,58.2,29.53,WSW,248,0.0,0.0,65,0.00,,,0.00,WeatherCatV1.15B25,2013-07-05 13:35:00,
2013-07-05 06:40:00,70.6,58.2,29.53,WSW,248,0.0,0.0,65,0.00,,,0.00,WeatherCatV1.15B25,2013-07-05 13:40:00,
2013-07-05 06:45:00,70.6,58.2,29.53,WSW,248,0.0,0.0,65,0.00,,,0.00,WeatherCatV1.15B25,2013-07-05 13:45:00,
2013-07-05 06:50:00,70.6,58.2,29.53,WSW,248,0.0,0.0,65,0.00,,,0.00,WeatherCatV1.15B25,2013-07-05 13:50:00,
2013-07-05 06:55:00,70.6,58.2,29.53,WSW,248,0.0,0.0,65,0.00,,,0.00,WeatherCatV1.15B25,2013-07-05 13:55:00,
2013-07-05 07:00:00,69.2,57.3,29.53,WSW,248,0.0,0.0,66,0.00,,,0.00,WeatherCatV1.15B25,2013-07-05 14:00:00,
2013-07-05 07:05:00,69.2,57.3,29.53,WSW,248,0.0,0.0,66,0.00,,,0.00,WeatherCatV1.15B25,2013-07-05 14:05:00,
2013-07-05 07:10:00,69.2,57.3,29.53,WSW,248,0.0,0.0,66,0.00,,,0.00,WeatherCatV1.15B25,2013-07-05 14:10:00,
2013-07-05 07:15:00,69.2,57.3,29.53,WSW,248,0.0,0.0,66,0.00,,,0.00,WeatherCatV1.15B25,2013-07-05 14:15:00,
2013-07-05 07:20:00,69.2,57.3,29.53,WSW,248,0.0,0.0,66,0.00,,,0.00,WeatherCatV1.15B25,2013-07-05 14:20:00,
2013-07-05 07:25:00,69.2,57.3,29.53,WSW,248,0.0,0.0,66,0.00,,,0.00,WeatherCatV1.15B25,2013-07-05 14:25:00,
2013-07-05 07:30:00,69.2,57.3,29.53,WSW,248,0.0,0.0,66,0.00,,,0.00,WeatherCatV1.15B25,2013-07-05 14:30:00,
2013-07-05 07:35:00,69.2,57.3,29.53,WSW,248,0.0,0.0,66,0.00,,,0.00,WeatherCatV1.15B25,2013-07-05 14:35:00,
2013-07-05 07:40:00,69.2,57.3,29.53,WSW,248,0.0,0.0,66,0.00,,,0.00,WeatherCatV1.15B25,2013-07-05 14:40:00,
2013-07-05 07:45:00,69.2,57.3,29.53,WSW,248,0.0,0.0,66,0.00,,,0.00,WeatherCatV1.15B25,2013-07-05 14:45:00,
2013-07-05 07:50:00,69.2,57.3,29.53,WSW,248,0.0,0.0,66,0.00,,,0.00,WeatherCatV1.15B25,2013-07-05 14:50:00,
2013-07-05 07:55:00,69.2,57.3,29.53,WSW,248,0.0,0.0,66,0.00,,,0.00,WeatherCatV1.15B25,2013-07-05 14:55:00,
2013-07-05 08:00:00,68.8,55.2,29.57,ENE,58,0.0,0.0,62,0.00,,,0.00,WeatherCatV1.15B25,2013-07-05 15:00:00,
2013-07-05 08:13:00,69.4,55.8,29.58,ENE,58,0.0,0.0,62,0.00,,,0.00,WeatherCatV1.15B25,2013-07-05 15:13:00,
2013-07-05 08:18:00,70.5,57.3,29.58,ENE,58,0.0,0.0,63,0.00,,,0.00,WeatherCatV1.15B25,2013-07-05 15:18:00,
2013-07-05 08:23:00,70.8,57.1,29.58,ENE,58,0.0,0.0,62,0.00,,,0.00,WeatherCatV1.15B25,2013-07-05 15:23:00,
2013-07-05 08:28:00,71.3,55.3,29.58,SSE,156,0.0,0.0,57,0.00,,,0.00,WeatherCatV1.15B25,2013-07-05 15:28:00,
2013-07-05 08:33:00,72.3,55.2,29.59,SW,226,0.0,0.0,55,0.00,,,0.00,WeatherCatV1.15B25,2013-07-05 15:33:00,
2013-07-05 08:38:00,72.9,53.7,29.59,SE,129,0.0,0.0,51,0.00,,,0.00,WeatherCatV1.15B25,2013-07-05 15:38:00,
2013-07-05 08:43:00,73.5,54.8,29.59,SW,226,0.0,0.0,52,0.00,,,0.00,WeatherCatV1.15B25,2013-07-05 15:43:00,
2013-07-05 08:48:00,73.7,52.8,29.60,SSW,211,0.0,0.0,48,0.00,,,0.00,WeatherCatV1.15B25,2013-07-05 15:48:00,
2013-07-05 08:53:00,74.1,51.4,29.60,SE,136,0.0,0.0,45,0.00,,,0.00,WeatherCatV1.15B25,2013-07-05 15:53:00,
2013-07-05 08:58:00,74.4,51.7,29.60,SE,136,0.0,0.0,45,0.00,,,0.00,WeatherCatV1.15B25,2013-07-05 15:58:00,
2013-07-05 09:03:00,74.8,48.8,29.60,South,172,0.0,0.0,40,0.00,,,0.00,WeatherCatV1.15B25,2013-07-05 16:03:00,
2013-07-05 09:08:00,75.3,48.6,29.60,SSW,212,0.0,0.0,39,0.00,,,0.00,WeatherCatV1.15B25,2013-07-05 16:08:00,
2013-07-05 09:13:00,75.8,48.4,29.60,SSE,156,0.0,0.0,38,0.00,,,0.00,WeatherCatV1.15B25,2013-07-05 16:13:00,
2013-07-05 09:18:00,76.1,47.2,29.60,SW,218,0.0,0.0,36,0.00,,,0.00,WeatherCatV1.15B25,2013-07-05 16:18:00,
2013-07-05 09:23:00,76.6,49.1,29.60,SW,214,0.0,0.0,38,0.00,,,0.00,WeatherCatV1.15B25,2013-07-05 16:23:00,
2013-07-05 09:28:00,77.1,46.5,29.60,SE,129,0.0,0.0,34,0.00,,,0.00,WeatherCatV1.15B25,2013-07-05 16:28:00,
2013-07-05 09:33:00,77.5,45.3,29.60,SE,134,0.0,1.0,32,0.00,,,0.00,WeatherCatV1.15B25,2013-07-05 16:33:00,
2013-07-05 09:38:00,77.7,45.5,29.60,SE,124,0.0,0.0,32,0.00,,,0.00,WeatherCatV1.15B25,2013-07-05 16:38:00,
2013-07-05 09:43:00,78.0,46.5,29.60,SSE,162,0.0,0.0,33,0.00,,,0.00,WeatherCatV1.15B25,2013-07-05 16:43:00,
2013-07-05 09:48:00,78.2,45.9,29.60,SE,140,0.0,0.0,32,0.00,,,0.00,WeatherCatV1.15B25,2013-07-05 16:48:00,
2013-07-05 09:53:00,78.4,44.4,29.60,SE,143,0.0,0.0,30,0.00,,,0.00,WeatherCatV1.15B25,2013-07-05 16:53:00,
2013-07-05 09:58:00,78.6,46.3,29.60,SSE,167,0.0,0.0,32,0.00,,,0.00,WeatherCatV1.15B25,2013-07-05 16:58:00,
2013-07-05 10:03:00,78.8,46.4,29.60,ESE,113,0.0,0.0,32,0.00,,,0.00,WeatherCatV1.15B25,2013-07-05 17:03:00,
2013-07-05 10:08:00,79.0,46.6,29.60,SSW,201,0.0,0.0,32,0.00,,,0.00,WeatherCatV1.15B25,2013-07-05 17:08:00,
2013-07-05 10:13:00,79.4,50.8,29.60,ESE,120,0.0,0.0,37,0.00,,,0.00,WeatherCatV1.15B25,2013-07-05 17:13:00,
2013-07-05 10:18:00,80.0,49.1,29.60,SE,129,0.0,0.0,34,0.00,,,0.00,WeatherCatV1.15B25,2013-07-05 17:18:00,
2013-07-05 10:23:00,80.7,47.2,29.60,WSW,257,0.0,1.0,31,0.00,,,0.00,WeatherCatV1.15B25,2013-07-05 17:23:00,
2013-07-05 10:28:00,81.4,48.7,29.60,WSW,246,0.0,0.0,32,0.00,,,0.00,WeatherCatV1.15B25,2013-07-05 17:28:00,
2013-07-05 10:33:00,82.0,44.7,29.60,SE,134,0.0,0.0,27,0.00,,,0.00,WeatherCatV1.15B25,2013-07-05 17:33:00,
2013-07-05 10:38:00,82.9,46.4,29.60,SSE,153,0.0,0.0,28,0.00,,,0.00,WeatherCatV1.15B25,2013-07-05 17:38:00,
2013-07-05 10:43:00,83.7,43.0,29.60,SE,146,0.0,0.0,24,0.00,,,0.00,WeatherCatV1.15B25,2013-07-05 17:43:00,
2013-07-05 10:48:00,84.2,43.5,29.60,SSW,199,0.0,0.0,24,0.00,,,0.00,WeatherCatV1.15B25,2013-07-05 17:48:00,
2013-07-05 10:53:00,84.1,44.5,29.60,South,185,0.0,0.0,25,0.00,,,0.00,WeatherCatV1.15B25,2013-07-05 17:53:00,
2013-07-05 10:58:00,84.6,42.7,29.60,SE,133,0.0,0.0,23,0.00,,,0.00,WeatherCatV1.15B25,2013-07-05 17:58:00,
2013-07-05 11:03:00,85.0,44.1,29.60,SW,229,0.0,0.0,24,0.00,,,0.00,WeatherCatV1.15B25,2013-07-05 18:03:00,
2013-07-05 11:08:00,85.1,47.3,29.60,WSW,255,0.0,0.0,27,0.00,,,0.00,WeatherCatV1.15B25,2013-07-05 18:08:00,
2013-07-05 11:13:00,85.4,42.2,29.61,WSW,240,0.0,0.0,22,0.00,,,0.00,WeatherCatV1.15B25,2013-07-05 18:13:00,
2013-07-05 11:18:00,85.6,44.6,29.61,WSW,240,0.0,0.0,24,0.00,,,0.00,WeatherCatV1.15B25,2013-07-05 18:18:00,
2013-07-05 11:23:00,85.9,43.8,29.61,WSW,256,0.0,0.0,23,0.00,,,0.00,WeatherCatV1.15B25,2013-07-05 18:23:00,
2013-07-05 11:28:00,86.6,45.5,29.61,SW,225,0.0,0.0,24,0.00,,,0.00,WeatherCatV1.15B25,2013-07-05 18:28:00,
2013-07-05 11:33:00,88.1,43.2,29.61,SW,217,0.0,0.0,21,0.00,,,0.00,WeatherCatV1.15B25,2013-07-05 18:33:00,
2013-07-05 11:38:00,88.5,42.3,29.61,South,186,0.0,0.0,20,0.00,,,0.00,WeatherCatV1.15B25,2013-07-05 18:38:00,
2013-07-05 11:43:00,89.2,44.1,29.61,SE,134,0.0,0.0,21,0.00,,,0.00,WeatherCatV1.15B25,2013-07-05 18:43:00,
2013-07-05 11:48:00,89.1,46.4,29.61,WSW,249,0.0,0.0,23,0.00,,,0.00,WeatherCatV1.15B25,2013-07-05 18:48:00,
2013-07-05 11:53:00,88.2,45.7,29.61,WSW,251,0.0,0.0,23,0.00,,,0.00,WeatherCatV1.15B25,2013-07-05 18:53:00,
2013-07-05 11:58:00,87.6,46.3,29.61,SW,225,0.0,0.0,24,0.00,,,0.00,WeatherCatV1.15B25,2013-07-05 18:58:00,
2013-07-05 12:03:00,88.4,48.1,29.61,SSE,157,0.0,0.0,25,0.00,,,0.00,WeatherCatV1.15B25,2013-07-05 19:03:00,
2013-07-05 12:08:00,89.0,48.6,29.61,SSE,156,0.0,0.0,25,0.00,,,0.00,WeatherCatV1.15B25,2013-07-05 19:08:00,
2013-07-05 12:13:00,89.9,44.7,29.61,SW,232,0.0,0.0,21,0.00,,,0.00,WeatherCatV1.15B25,2013-07-05 19:13:00,
2013-07-05 12:18:00,90.2,44.9,29.60,ESE,105,0.0,0.0,21,0.00,,,0.00,WeatherCatV1.15B25,2013-07-05 19:18:00,
2013-07-05 12:23:00,90.4,43.8,29.61,WSW,248,0.0,2.0,20,0.00,,,0.00,WeatherCatV1.15B25,2013-07-05 19:23:00,
2013-07-05 12:28:00,90.2,47.3,29.60,West,266,0.0,0.0,23,0.00,,,0.00,WeatherCatV1.15B25,2013-07-05 19:28:00,
2013-07-05 12:33:00,90.3,47.4,29.61,East,81,0.0,0.0,23,0.00,,,0.00,WeatherCatV1.15B25,2013-07-05 19:33:00,
2013-07-05 12:38:00,90.9,44.2,29.61,ESE,106,0.0,0.0,20,0.00,,,0.00,WeatherCatV1.15B25,2013-07-05 19:38:00,
2013-07-05 12:43:00,90.9,44.2,29.60,ESE,117,0.0,1.0,20,0.00,,,0.00,WeatherCatV1.15B25,2013-07-05 19:43:00,
2013-07-05 12:48:00,91.4,44.6,29.60,ESE,115,0.0,0.0,20,0.00,,,0.00,WeatherCatV1.15B25,2013-07-05 19:48:00,
2013-07-05 12:53:00,91.7,46.2,29.60,North,359,0.0,0.0,21,0.00,,,0.00,WeatherCatV1.15B25,2013-07-05 19:53:00,
2013-07-05 12:58:00,91.3,44.6,29.60,SSW,208,0.0,0.0,20,0.00,,,0.00,WeatherCatV1.15B25,2013-07-05 19:58:00,
2013-07-05 13:03:00,90.4,43.8,29.60,WSW,243,0.0,0.0,20,0.00,,,0.00,WeatherCatV1.15B25,2013-07-05 20:03:00,
2013-07-05 13:08:00,89.8,44.6,29.60,SW,223,0.0,0.0,21,0.00,,,0.00,WeatherCatV1.15B25,2013-07-05 20:08:00,
2013-07-05 13:13:00,89.8,43.3,29.60,West,278,0.0,0.0,20,0.00,,,0.00,WeatherCatV1.15B25,2013-07-05 20:13:00,
2013-07-05 13:18:00,89.5,45.6,29.60,WSW,255,0.0,0.0,22,0.00,,,0.00,WeatherCatV1.15B25,2013-07-05 20:18:00,
2013-07-05 13:23:00,88.8,46.2,29.60,WSW,252,1.0,1.0,23,0.00,,,0.00,WeatherCatV1.15B25,2013-07-05 20:23:00,
2013-07-05 13:28:00,87.9,46.6,29.60,West,266,0.0,0.0,24,0.00,,,0.00,WeatherCatV1.15B25,2013-07-05 20:28:00,
2013-07-05 13:33:00,87.6,48.4,29.60,SSW,207,0.0,0.0,26,0.00,,,0.00,WeatherCatV1.15B25,2013-07-05 20:33:00,
2013-07-05 13:38:00,87.7,46.4,29.60,West,281,0.0,1.0,24,0.00,,,0.00,WeatherCatV1.15B25,2013-07-05 20:38:00,
2013-07-05 13:43:00,87.3,46.1,29.60,SE,142,1.0,1.0,24,0.00,,,0.00,WeatherCatV1.15B25,2013-07-05 20:43:00,
2013-07-05 13:48:00,88.5,49.2,29.60,SW,230,0.0,0.0,26,0.00,,,0.00,WeatherCatV1.15B25,2013-07-05 20:48:00,
2013-07-05 13:53:00,87.9,46.6,29.60,West,266,0.0,3.0,24,0.00,,,0.00,WeatherCatV1.15B25,2013-07-05 20:53:00,
2013-07-05 13:58:00,87.8,46.5,29.60,West,263,2.0,2.0,24,0.00,,,0.00,WeatherCatV1.15B25,2013-07-05 20:58:00,
2013-07-05 14:03:00,87.4,47.2,29.60,West,262,0.0,0.0,25,0.00,,,0.00,WeatherCatV1.15B25,2013-07-05 21:03:00,
2013-07-05 14:08:00,87.0,47.9,29.60,West,264,1.0,2.0,26,0.00,,,0.00,WeatherCatV1.15B25,2013-07-05 21:08:00,
2013-07-05 14:13:00,86.6,47.6,29.60,West,263,0.0,1.0,26,0.00,,,0.00,WeatherCatV1.15B25,2013-07-05 21:13:00,
2013-07-05 14:18:00,86.8,47.8,29.60,West,259,0.0,4.0,26,0.00,,,0.00,WeatherCatV1.15B25,2013-07-05 21:18:00,
2013-07-05 14:23:00,87.5,47.3,29.60,WSW,249,1.0,1.0,25,0.00,,,0.00,WeatherCatV1.15B25,2013-07-05 21:23:00,
2013-07-05 14:28:00,87.4,47.2,29.60,WSW,255,0.0,1.0,25,0.00,,,0.00,WeatherCatV1.15B25,2013-07-05 21:28:00,
2013-07-05 14:33:00,86.9,46.8,29.60,West,270,1.0,1.0,25,0.00,,,0.00,WeatherCatV1.15B25,2013-07-05 21:33:00,
2013-07-05 14:38:00,86.4,48.4,29.59,West,263,0.0,1.0,27,0.00,,,0.00,WeatherCatV1.15B25,2013-07-05 21:38:00,
2013-07-05 14:43:00,86.5,47.5,29.59,West,270,0.0,1.0,26,0.00,,,0.00,WeatherCatV1.15B25,2013-07-05 21:43:00,
2013-07-05 14:48:00,86.1,48.2,29.59,WSW,252,1.0,1.0,27,0.00,,,0.00,WeatherCatV1.15B25,2013-07-05 21:48:00,
2013-07-05 14:53:00,86.3,49.3,29.59,West,270,0.0,0.0,28,0.00,,,0.00,WeatherCatV1.15B25,2013-07-05 21:53:00,
2013-07-05 14:58:00,87.0,49.9,29.59,West,276,1.0,2.0,28,0.00,,,0.00,WeatherCatV1.15B25,2013-07-05 21:58:00,
2013-07-05 15:03:00,86.8,47.8,29.59,SE,127,1.0,1.0,26,0.00,,,0.00,WeatherCatV1.15B25,2013-07-05 22:03:00,
2013-07-05 15:08:00,87.3,48.2,29.59,West,267,0.0,0.0,26,0.00,,,0.00,WeatherCatV1.15B25,2013-07-05 22:08:00,
2013-07-05 15:13:00,87.4,49.3,29.59,WSW,252,0.0,0.0,27,0.00,,,0.00,WeatherCatV1.15B25,2013-07-05 22:13:00,
2013-07-05 15:18:00,88.2,47.9,29.59,SW,218,0.0,0.0,25,0.00,,,0.00,WeatherCatV1.15B25,2013-07-05 22:18:00,
2013-07-05 15:23:00,88.0,48.8,29.58,WSW,256,0.0,4.0,26,0.00,,,0.00,WeatherCatV1.15B25,2013-07-05 22:23:00,
2013-07-05 15:28:00,87.5,46.2,29.58,SE,129,0.0,0.0,24,0.00,,,0.00,WeatherCatV1.15B25,2013-07-05 22:28:00,
2013-07-05 15:33:00,87.7,49.5,29.58,ENE,67,0.0,1.0,27,0.00,,,0.00,WeatherCatV1.15B25,2013-07-05 22:33:00,
2013-07-05 15:38:00,87.6,46.3,29.58,West,269,0.0,2.0,24,0.00,,,0.00,WeatherCatV1.15B25,2013-07-05 22:38:00,
2013-07-05 15:43:00,86.8,46.7,29.58,WSW,256,0.0,1.0,25,0.00,,,0.00,WeatherCatV1.15B25,2013-07-05 22:43:00,
2013-07-05 15:48:00,86.6,46.6,29.58,West,262,0.0,0.0,25,0.00,,,0.00,WeatherCatV1.15B25,2013-07-05 22:48:00,
2013-07-05 15:53:00,86.9,47.8,29.57,East,96,0.0,0.0,26,0.00,,,0.00,WeatherCatV1.15B25,2013-07-05 22:53:00,
2013-07-05 15:58:00,87.5,47.3,29.58,NW,312,0.0,1.0,25,0.00,,,0.00,WeatherCatV1.15B25,2013-07-05 22:58:00,
2013-07-05 16:03:00,87.6,46.3,29.58,WSW,245,0.0,0.0,24,0.00,,,0.00,WeatherCatV1.15B25,2013-07-05 23:03:00,
2013-07-05 16:08:00,87.7,47.5,29.58,South,190,0.0,0.0,25,0.00,,,0.00,WeatherCatV1.15B25,2013-07-05 23:08:00,
2013-07-05 16:13:00,87.8,44.2,29.57,West,267,0.0,1.0,22,0.00,,,0.00,WeatherCatV1.15B25,2013-07-05 23:13:00,
2013-07-05 16:18:00,87.6,44.0,29.58,West,264,0.0,0.0,22,0.00,,,0.00,WeatherCatV1.15B25,2013-07-05 23:18:00,
2013-07-05 16:23:00,87.8,43.0,29.57,ESE,116,0.0,0.0,21,0.00,,,0.00,WeatherCatV1.15B25,2013-07-05 23:23:00,
2013-07-05 16:28:00,87.6,42.8,29.57,SE,135,0.0,0.0,21,0.00,,,0.00,WeatherCatV1.15B25,2013-07-05 23:28:00,
2013-07-05 16:33:00,87.8,44.2,29.57,SSE,160,0.0,0.0,22,0.00,,,0.00,WeatherCatV1.15B25,2013-07-05 23:33:00,
2013-07-05 16:38:00,87.7,45.3,29.58,WNW,284,0.0,0.0,23,0.00,,,0.00,WeatherCatV1.15B25,2013-07-05 23:38:00,
2013-07-05 16:43:00,87.6,44.0,29.57,ESE,104,0.0,0.0,22,0.00,,,0.00,WeatherCatV1.15B25,2013-07-05 23:43:00,
2013-07-05 16:48:00,87.5,43.9,29.57,SSE,149,0.0,0.0,22,0.00,,,0.00,WeatherCatV1.15B25,2013-07-05 23:48:00,
2013-07-05 16:53:00,87.6,42.8,29.57,SSW,194,0.0,0.0,21,0.00,,,0.00,WeatherCatV1.15B25,2013-07-05 23:53:00,
2013-07-05 16:58:00,87.2,46.0,29.57,SE,142,0.0,0.0,24,0.00,,,0.00,WeatherCatV1.15B25,2013-07-05 23:58:00,
2013-07-05 17:03:00,87.3,46.1,29.57,SE,146,0.0,0.0,24,0.00,,,0.00,WeatherCatV1.15B25,2013-07-06 00:03:00,
2013-07-05 17:08:00,87.0,45.8,29.57,SW,226,0.0,0.0,24,0.00,,,0.00,WeatherCatV1.15B25,2013-07-06 00:08:00,
2013-07-05 17:13:00,87.0,47.9,29.57,SW,221,0.0,1.0,26,0.00,,,0.00,WeatherCatV1.15B25,2013-07-06 00:13:00,
2013-07-05 17:18:00,87.0,46.9,29.57,South,187,0.0,0.0,25,0.00,,,0.00,WeatherCatV1.15B25,2013-07-06 00:18:00,
2013-07-05 17:23:00,86.8,46.7,29.57,WSW,240,0.0,0.0,25,0.00,,,0.00,WeatherCatV1.15B25,2013-07-06 00:23:00,
2013-07-05 17:28:00,86.8,46.7,29.57,SSW,204,0.0,0.0,25,0.00,,,0.00,WeatherCatV1.15B25,2013-07-06 00:28:00,
2013-07-05 17:33:00,86.7,48.7,29.57,WSW,257,0.0,0.0,27,0.00,,,0.00,WeatherCatV1.15B25,2013-07-06 00:33:00,
2013-07-05 17:38:00,86.3,44.1,29.57,SSE,166,0.0,0.0,23,0.00,,,0.00,WeatherCatV1.15B25,2013-07-06 00:38:00,
2013-07-05 17:43:00,86.2,46.2,29.57,WSW,256,0.0,0.0,25,0.00,,,0.00,WeatherCatV1.15B25,2013-07-06 00:43:00,
2013-07-05 17:48:00,86.2,47.3,29.57,West,274,0.0,1.0,26,0.00,,,0.00,WeatherCatV1.15B25,2013-07-06 00:48:00,
2013-07-05 17:53:00,86.1,47.2,29.57,West,270,0.0,0.0,26,0.00,,,0.00,WeatherCatV1.15B25,2013-07-06 00:53:00,
2013-07-05 17:58:00,85.8,46.9,29.56,West,259,0.0,0.0,26,0.00,,,0.00,WeatherCatV1.15B25,2013-07-06 00:58:00,
2013-07-05 18:03:00,85.7,45.8,29.57,ESE,120,0.0,0.0,25,0.00,,,0.00,WeatherCatV1.15B25,2013-07-06 01:03:00,
2013-07-05 18:08:00,85.7,45.8,29.57,SE,126,0.0,0.0,25,0.00,,,0.00,WeatherCatV1.15B25,2013-07-06 01:08:00,
2013-07-05 18:13:00,85.5,46.7,29.57,SW,228,0.0,0.0,26,0.00,,,0.00,WeatherCatV1.15B25,2013-07-06 01:13:00,
2013-07-05 18:18:00,85.5,48.6,29.57,West,274,0.0,0.0,28,0.00,,,0.00,WeatherCatV1.15B25,2013-07-06 01:18:00,
2013-07-05 18:23:00,85.1,47.3,29.57,West,272,0.0,0.0,27,0.00,,,0.00,WeatherCatV1.15B25,2013-07-06 01:23:00,
2013-07-05 18:28:00,84.8,48.0,29.57,West,272,0.0,0.0,28,0.00,,,0.00,WeatherCatV1.15B25,2013-07-06 01:28:00,
2013-07-05 18:33:00,84.6,47.9,29.57,West,273,0.0,0.0,28,0.00,,,0.00,WeatherCatV1.15B25,2013-07-06 01:33:00,
2013-07-05 18:38:00,84.3,48.5,29.57,West,271,0.0,0.0,29,0.00,,,0.00,WeatherCatV1.15B25,2013-07-06 01:38:00,
2013-07-05 18:43:00,84.4,47.7,29.57,West,259,0.0,0.0,28,0.00,,,0.00,WeatherCatV1.15B25,2013-07-06 01:43:00,
2013-07-05 18:48:00,84.5,48.7,29.57,WSW,246,0.0,0.0,29,0.00,,,0.00,WeatherCatV1.15B25,2013-07-06 01:48:00,
2013-07-05 18:53:00,84.3,47.6,29.57,ENE,78,0.0,0.0,28,0.00,,,0.00,WeatherCatV1.15B25,2013-07-06 01:53:00,
2013-07-05 18:58:00,83.9,48.2,29.57,West,267,0.0,0.0,29,0.00,,,0.00,WeatherCatV1.15B25,2013-07-06 01:58:00,
2013-07-05 19:03:00,83.5,46.9,29.57,WSW,243,0.0,0.0,28,0.00,,,0.00,WeatherCatV1.15B25,2013-07-06 02:03:00,
2013-07-05 19:08:00,83.3,48.6,29.57,WSW,243,0.0,0.0,30,0.00,,,0.00,WeatherCatV1.15B25,2013-07-06 02:08:00,
2013-07-05 19:14:00,83.1,46.6,29.57,WSW,243,0.0,0.0,28,0.00,,,0.00,WeatherCatV1.15B25,2013-07-06 02:14:00,
2013-07-05 19:19:00,83.0,45.5,29.57,SSE,150,0.0,0.0,27,0.00,,,0.00,WeatherCatV1.15B25,2013-07-06 02:19:00,
2013-07-05 19:24:00,82.8,47.3,29.57,SSE,149,0.0,0.0,29,0.00,,,0.00,WeatherCatV1.15B25,2013-07-06 02:24:00,
2013-07-05 19:29:00,82.5,46.1,29.58,SE,145,0.0,0.0,28,0.00,,,0.00,WeatherCatV1.15B25,2013-07-06 02:29:00,
2013-07-05 19:33:00,82.2,46.8,29.57,SE,146,0.0,0.0,29,0.00,,,0.00,WeatherCatV1.15B25,2013-07-06 02:33:00,
2013-07-05 19:39:00,82.2,47.7,29.57,SE,146,0.0,0.0,30,0.00,,,0.00,WeatherCatV1.15B25,2013-07-06 02:39:00,
2013-07-05 19:43:00,82.0,47.5,29.57,SE,146,0.0,0.0,30,0.00,,,0.00,WeatherCatV1.15B25,2013-07-06 02:43:00,
2013-07-05 19:48:00,81.5,47.0,29.57,SE,146,0.0,0.0,30,0.00,,,0.00,WeatherCatV1.15B25,2013-07-06 02:48:00,
2013-07-05 19:53:00,80.9,46.5,29.57,SE,146,0.0,0.0,30,0.00,,,0.00,WeatherCatV1.15B25,2013-07-06 02:53:00,
2013-07-05 19:59:00,80.5,47.1,29.57,SE,146,0.0,0.0,31,0.00,,,0.00,WeatherCatV1.15B25,2013-07-06 02:59:00,
2013-07-05 20:04:00,80.1,46.7,29.58,SE,146,0.0,0.0,31,0.00,,,0.00,WeatherCatV1.15B25,2013-07-06 03:04:00,
2013-07-05 20:09:00,79.6,47.1,29.58,SE,146,0.0,0.0,32,0.00,,,0.00,WeatherCatV1.15B25,2013-07-06 03:09:00,
2013-07-05 20:14:00,79.0,47.4,29.58,SE,143,0.0,0.0,33,0.00,,,0.00,WeatherCatV1.15B25,2013-07-06 03:14:00,
2013-07-05 20:18:00,78.4,48.5,29.58,SE,143,0.0,0.0,35,0.00,,,0.00,WeatherCatV1.15B25,2013-07-06 03:18:00,
2013-07-05 20:23:00,77.9,48.0,29.58,SE,143,0.0,0.0,35,0.00,,,0.00,WeatherCatV1.15B25,2013-07-06 03:23:00,
2013-07-05 20:28:00,77.6,49.2,29.58,SE,143,0.0,0.0,37,0.00,,,0.00,WeatherCatV1.15B25,2013-07-06 03:28:00,
2013-07-05 20:33:00,77.3,49.0,29.58,SE,143,0.0,0.0,37,0.00,,,0.00,WeatherCatV1.15B25,2013-07-06 03:33:00,
2013-07-05 20:38:00,76.8,48.5,29.58,ESE,113,0.0,0.0,37,0.00,,,0.00,WeatherCatV1.15B25,2013-07-06 03:38:00,
2013-07-05 20:44:00,76.4,48.2,29.58,ESE,112,0.0,0.0,37,0.00,,,0.00,WeatherCatV1.15B25,2013-07-06 03:44:00,
2013-07-05 20:49:00,76.0,47.8,29.58,East,91,0.0,0.0,37,0.00,,,0.00,WeatherCatV1.15B25,2013-07-06 03:49:00,
2013-07-05 20:54:00,75.6,48.2,29.58,East,92,0.0,0.0,38,0.00,,,0.00,WeatherCatV1.15B25,2013-07-06 03:54:00,
2013-07-05 20:59:00,75.3,50.0,29.59,East,93,0.0,0.0,41,0.00,,,0.00,WeatherCatV1.15B25,2013-07-06 03:59:00,
2013-07-05 21:01:00,75.1,49.8,29.59,East,91,0.0,0.0,41,0.00,,,0.00,WeatherCatV1.15B25,2013-07-06 04:01:00,
2013-07-05 21:06:00,74.6,49.3,29.59,East,94,0.0,0.0,41,0.00,,,0.00,WeatherCatV1.15B25,2013-07-06 04:06:00,
2013-07-05 21:11:00,74.2,49.6,29.59,East,91,0.0,0.0,42,0.00,,,0.00,WeatherCatV1.15B25,2013-07-06 04:11:00,
2013-07-05 21:16:00,74.0,49.4,29.59,East,91,0.0,0.0,42,0.00,,,0.00,WeatherCatV1.15B25,2013-07-06 04:16:00,
2013-07-05 21:21:00,73.7,49.8,29.59,East,91,0.0,0.0,43,0.00,,,0.00,WeatherCatV1.15B25,2013-07-06 04:21:00,
2013-07-05 21:26:00,73.3,53.5,29.59,East,92,0.0,0.0,50,0.00,,,0.00,WeatherCatV1.15B25,2013-07-06 04:26:00,
2013-07-05 21:31:00,72.6,50.6,29.60,East,92,0.0,0.0,46,0.00,,,0.00,WeatherCatV1.15B25,2013-07-06 04:31:00,
2013-07-05 21:36:00,72.1,51.9,29.60,East,91,0.0,0.0,49,0.00,,,0.00,WeatherCatV1.15B25,2013-07-06 04:36:00,
2013-07-05 21:41:00,71.6,49.1,29.60,East,91,0.0,0.0,45,0.00,,,0.00,WeatherCatV1.15B25,2013-07-06 04:41:00,
2013-07-05 21:46:00,71.4,48.9,29.60,East,91,0.0,0.0,45,0.00,,,0.00,WeatherCatV1.15B25,2013-07-06 04:46:00,
2013-07-05 21:51:00,71.2,48.8,29.60,East,94,0.0,0.0,45,0.00,,,0.00,WeatherCatV1.15B25,2013-07-06 04:51:00,
2013-07-05 21:56:00,71.1,48.1,29.60,East,94,0.0,0.0,44,0.00,,,0.00,WeatherCatV1.15B25,2013-07-06 04:56:00,
2013-07-05 22:01:00,71.2,48.8,29.60,East,93,0.0,0.0,45,0.00,,,0.00,WeatherCatV1.15B25,2013-07-06 05:01:00,
2013-07-05 22:06:00,71.2,49.3,29.60,East,93,0.0,0.0,46,0.00,,,0.00,WeatherCatV1.15B25,2013-07-06 05:06:00,
2013-07-05 22:11:00,70.9,49.1,29.61,East,94,0.0,0.0,46,0.00,,,0.00,WeatherCatV1.15B25,2013-07-06 05:11:00,
2013-07-05 22:16:00,70.6,51.0,29.61,East,93,0.0,0.0,50,0.00,,,0.00,WeatherCatV1.15B25,2013-07-06 05:16:00,
2013-07-05 22:21:00,69.9,52.5,29.61,East,94,0.0,0.0,54,0.00,,,0.00,WeatherCatV1.15B25,2013-07-06 05:21:00,
2013-07-05 22:26:00,69.4,50.5,29.61,East,94,0.0,0.0,51,0.00,,,0.00,WeatherCatV1.15B25,2013-07-06 05:26:00,
2013-07-05 22:31:00,69.0,50.1,29.61,East,92,0.0,0.0,51,0.00,,,0.00,WeatherCatV1.15B25,2013-07-06 05:31:00,
2013-07-05 22:36:00,68.8,51.0,29.61,East,92,0.0,0.0,53,0.00,,,0.00,WeatherCatV1.15B25,2013-07-06 05:36:00,
2013-07-05 22:41:00,68.8,49.4,29.61,East,91,0.0,0.0,50,0.00,,,0.00,WeatherCatV1.15B25,2013-07-06 05:41:00,
2013-07-05 22:46:00,68.8,49.9,29.61,East,91,0.0,0.0,51,0.00,,,0.00,WeatherCatV1.15B25,2013-07-06 05:46:00,
2013-07-05 22:51:00,68.6,50.3,29.61,East,92,0.0,0.0,52,0.00,,,0.00,WeatherCatV1.15B25,2013-07-06 05:51:00,
2013-07-05 22:56:00,68.5,51.2,29.61,East,91,0.0,0.0,54,0.00,,,0.00,WeatherCatV1.15B25,2013-07-06 05:56:00,
2013-07-05 23:01:00,68.3,50.5,29.61,East,92,0.0,0.0,53,0.00,,,0.00,WeatherCatV1.15B25,2013-07-06 06:01:00,
2013-07-05 23:06:00,68.2,50.4,29.61,East,91,0.0,0.0,53,0.00,,,0.00,WeatherCatV1.15B25,2013-07-06 06:06:00,
2013-07-05 23:11:00,68.3,50.0,29.61,East,92,0.0,0.0,52,0.00,,,0.00,WeatherCatV1.15B25,2013-07-06 06:11:00,
2013-07-05 23:16:00,68.2,50.4,29.61,East,91,0.0,0.0,53,0.00,,,0.00,WeatherCatV1.15B25,2013-07-06 06:16:00,
2013-07-05 23:21:00,68.1,50.3,29.61,East,92,0.0,0.0,53,0.00,,,0.00,WeatherCatV1.15B25,2013-07-06 06:21:00,
2013-07-05 23:26:00,68.1,50.8,29.61,East,91,0.0,0.0,54,0.00,,,0.00,WeatherCatV1.15B25,2013-07-06 06:26:00,
2013-07-05 23:31:00,68.2,50.9,29.61,East,92,0.0,0.0,54,0.00,,,0.00,WeatherCatV1.15B25,2013-07-06 06:31:00,
2013-07-05 23:36:00,68.3,51.0,29.61,East,92,0.0,0.0,54,0.00,,,0.00,WeatherCatV1.15B25,2013-07-06 06:36:00,
2013-07-05 23:41:00,68.6,52.3,29.61,East,91,0.0,0.0,56,0.00,,,0.00,WeatherCatV1.15B25,2013-07-06 06:41:00,
2013-07-05 23:46:00,68.7,51.9,29.62,East,92,0.0,0.0,55,0.00,,,0.00,WeatherCatV1.15B25,2013-07-06 06:46:00,
2013-07-05 23:51:00,68.5,51.7,29.62,East,91,0.0,0.0,55,0.00,,,0.00,WeatherCatV1.15B25,2013-07-06 06:51:00,
2013-07-05 23:56:00,68.3,51.5,29.61,East,92,0.0,0.0,55,0.00,,,0.00,WeatherCatV1.15B25,2013-07-06 06:56:00,